createdAt,value
2019-02-24T00:01:03.912Z,75.00
2019-02-24T00:03:33.394Z,75.83
2019-02-24T00:06:02.781Z,73.55
2019-02-24T00:08:32.743Z,74.67
2019-02-24T00:11:02.133Z,69.87
2019-02-24T00:13:31.547Z,65.90
2019-02-24T00:16:01.043Z,70.80
2019-02-24T00:18:30.451Z,65.30
2019-02-24T00:20:59.868Z,64.05
2019-02-24T00:23:29.339Z,61.85
2019-02-24T00:25:58.749Z,78.25
2019-02-24T00:28:28.159Z,79.87
2019-02-24T00:30:57.628Z,71.83
2019-02-24T00:33:27.043Z,65.08
2019-02-24T00:35:56.696Z,67.40
2019-02-24T00:38:26.151Z,64.80
2019-02-24T00:40:55.560Z,74.97
2019-02-24T00:43:24.973Z,74.80
2019-02-24T00:45:54.539Z,69.03
2019-02-24T00:48:23.928Z,74.65
2019-02-24T00:50:54.921Z,74.37
2019-02-24T00:53:24.449Z,67.82
2019-02-24T00:55:53.951Z,69.82
2019-02-24T00:58:23.362Z,74.03
2019-02-24T01:00:52.841Z,76.07
2019-02-24T01:03:22.258Z,72.30
2019-02-24T01:05:51.670Z,73.62
2019-02-24T01:08:21.139Z,68.42
2019-02-24T01:10:50.535Z,73.78
2019-02-24T01:13:20.956Z,69.70
2019-02-24T01:15:50.439Z,65.17
2019-02-24T01:18:19.840Z,64.90
2019-02-24T01:20:49.343Z,94.93
2019-02-24T01:23:18.816Z,94.50
2019-02-24T01:25:49.249Z,112.95
2019-02-24T01:28:25.056Z,71.00
2019-02-24T01:30:53.870Z,70.83
2019-02-24T01:33:23.324Z,79.12
2019-02-24T01:35:52.855Z,73.15
2019-02-24T01:38:22.407Z,73.30
2019-02-24T01:40:51.900Z,79.83
2019-02-24T01:43:21.430Z,77.40
2019-02-24T01:45:50.856Z,80.67
2019-02-24T01:48:21.164Z,76.72
2019-02-24T01:50:50.733Z,72.45
2019-02-24T01:53:20.155Z,70.12
2019-02-24T01:55:49.676Z,72.58
2019-02-24T01:58:19.176Z,61.80
2019-02-24T02:00:48.758Z,63.07
2019-02-24T02:03:18.193Z,66.62
2019-02-24T02:05:48.118Z,61.08
2019-02-24T02:08:17.520Z,63.70
2019-02-24T02:10:46.921Z,69.27
2019-02-24T02:13:17.214Z,69.20
2019-02-24T02:15:46.623Z,67.00
2019-02-24T02:18:16.038Z,63.50
2019-02-24T02:20:45.473Z,67.73
2019-02-24T02:23:15.519Z,74.85
2019-02-24T02:25:44.961Z,66.05
2019-02-24T02:28:14.360Z,68.87
2019-02-24T02:30:43.718Z,67.07
2019-02-24T02:33:13.095Z,66.77
2019-02-24T02:35:42.452Z,61.20
2019-02-24T02:38:11.782Z,66.77
2019-02-24T02:40:41.147Z,56.03
2019-02-24T02:43:11.504Z,62.67
2019-02-24T02:45:40.779Z,58.40
2019-02-24T02:48:10.190Z,51.07
2019-02-24T02:50:39.545Z,43.43
2019-02-24T02:53:08.963Z,49.93
2019-02-24T02:55:38.361Z,45.97
2019-02-24T02:58:07.704Z,51.20
2019-02-24T03:00:37.283Z,46.80
2019-02-24T03:03:06.704Z,40.80
2019-02-24T03:05:37.164Z,45.57
2019-02-24T03:08:08.063Z,44.93
2019-02-24T03:10:37.428Z,42.53
2019-02-24T03:13:06.819Z,58.03
2019-02-24T03:15:36.728Z,49.67
2019-02-24T03:18:06.182Z,44.93
2019-02-24T03:20:35.459Z,46.40
2019-02-24T03:23:04.764Z,51.43
2019-02-24T03:25:34.994Z,50.73
2019-02-24T03:28:04.275Z,39.83
2019-02-24T03:30:33.565Z,50.10
2019-02-24T03:33:02.941Z,52.07
2019-02-24T03:35:32.162Z,48.90
2019-02-24T03:38:02.442Z,47.47
2019-02-24T03:40:31.831Z,52.13
2019-02-24T03:43:01.093Z,42.87
2019-02-24T03:45:30.351Z,40.37
2019-02-24T03:47:59.638Z,40.07
2019-02-24T03:50:28.866Z,40.07
2019-02-24T03:52:58.227Z,41.33
2019-02-24T03:55:27.665Z,47.37
2019-02-24T03:57:57.356Z,37.30
2019-02-24T04:00:26.785Z,43.57
2019-02-24T04:02:57.031Z,36.23
2019-02-24T04:05:26.415Z,44.50
2019-02-24T04:07:55.714Z,40.47
2019-02-24T04:10:24.947Z,44.40
2019-02-24T04:12:54.255Z,42.23
2019-02-24T04:15:23.634Z,42.13
2019-02-24T04:17:53.226Z,41.67
2019-02-24T04:20:22.517Z,41.43
2019-02-24T04:22:51.823Z,44.13
2019-02-24T04:25:21.091Z,39.83
2019-02-24T04:27:50.381Z,36.70
2019-02-24T04:30:19.661Z,41.90
2019-02-24T04:32:48.879Z,40.87
2019-02-24T04:35:18.096Z,36.87
2019-02-24T04:37:47.378Z,42.93
2019-02-24T04:40:16.621Z,45.37
2019-02-24T04:42:46.831Z,43.83
2019-02-24T04:45:16.157Z,40.17
2019-02-24T04:47:45.367Z,40.63
2019-02-24T04:50:14.589Z,45.90
2019-02-24T04:52:43.847Z,44.77
2019-02-24T04:55:13.069Z,47.23
2019-02-24T04:57:42.372Z,47.33
2019-02-24T05:00:11.812Z,48.90
2019-02-24T05:02:41.081Z,53.93
2019-02-24T05:05:11.269Z,45.23
2019-02-24T05:07:40.547Z,46.30
2019-02-24T05:10:09.856Z,52.53
2019-02-24T05:12:39.082Z,53.07
2019-02-24T05:15:08.457Z,56.23
2019-02-24T05:17:38.758Z,51.70
2019-02-24T05:20:09.093Z,48.27
2019-02-24T05:22:38.353Z,64.10
2019-02-24T05:25:07.817Z,55.57
2019-02-24T05:27:37.065Z,47.63
2019-02-24T05:30:06.906Z,44.07
2019-02-24T05:32:36.112Z,36.60
2019-02-24T05:35:06.073Z,40.23
2019-02-24T05:37:35.364Z,37.90
2019-02-24T05:40:06.483Z,36.17
2019-02-24T05:42:35.706Z,35.07
2019-02-24T05:45:06.177Z,43.13
2019-02-24T05:47:35.404Z,36.60
2019-02-24T05:50:06.530Z,46.23
2019-02-24T05:52:35.817Z,43.93
2019-02-24T05:55:06.197Z,42.00
2019-02-24T05:57:36.387Z,45.37
2019-02-24T06:00:07.036Z,46.90
2019-02-24T06:02:36.278Z,36.23
2019-02-24T06:05:05.865Z,40.50
2019-02-24T06:07:35.108Z,46.17
2019-02-24T06:10:06.483Z,42.30
2019-02-24T06:12:35.704Z,45.90
2019-02-24T06:15:06.350Z,37.93
2019-02-24T06:17:35.647Z,44.57
2019-02-24T06:20:05.792Z,36.45
2019-02-24T06:22:35.065Z,43.20
2019-02-24T06:25:05.171Z,36.07
2019-02-24T06:27:34.291Z,31.67
2019-02-24T06:30:05.333Z,41.90
2019-02-24T06:32:33.774Z,44.00
2019-02-24T06:35:02.867Z,46.13
2019-02-24T06:37:31.428Z,34.77
2019-02-24T06:40:00.266Z,41.50
2019-02-24T06:42:28.736Z,43.43
2019-02-24T06:44:57.273Z,44.00
2019-02-24T06:47:25.761Z,45.50
2019-02-24T06:49:54.261Z,48.10
2019-02-24T06:52:24.561Z,45.80
2019-02-24T06:54:53.086Z,48.53
2019-02-24T06:57:21.555Z,51.93
2019-02-24T06:59:50.086Z,48.93
2019-02-24T07:02:19.209Z,49.13
2019-02-24T07:04:48.340Z,47.50
2019-02-24T07:07:16.928Z,44.10
2019-02-24T07:09:46.011Z,47.10
2019-02-24T07:12:14.511Z,46.80
2019-02-24T07:14:43.044Z,46.87
2019-02-24T07:17:11.521Z,46.57
2019-02-24T07:19:40.032Z,43.30
2019-02-24T07:22:08.547Z,42.67
2019-02-24T07:24:37.995Z,43.50
2019-02-24T07:27:06.569Z,47.03
2019-02-24T07:29:35.071Z,37.27
2019-02-24T07:32:03.568Z,52.50
2019-02-24T07:34:32.069Z,48.83
2019-02-24T07:37:00.542Z,55.13
2019-02-24T07:39:29.007Z,47.20
2019-02-24T07:41:57.559Z,52.27
2019-02-24T07:44:26.038Z,49.87
2019-02-24T07:46:54.503Z,45.17
2019-02-24T07:49:23.029Z,42.00
2019-02-24T07:51:51.506Z,43.07
2019-02-24T07:54:19.984Z,42.90
2019-02-24T07:56:48.512Z,47.47
2019-02-24T07:59:16.984Z,54.17
2019-02-24T08:01:45.457Z,44.73
2019-02-24T08:04:13.980Z,40.47
2019-02-24T08:06:42.445Z,40.77
2019-02-24T08:09:10.909Z,42.13
2019-02-24T08:11:40.373Z,41.50
2019-02-24T08:14:08.951Z,36.10
2019-02-24T08:16:37.428Z,38.83
2019-02-24T08:19:05.960Z,38.37
2019-02-24T08:21:34.426Z,37.57
2019-02-24T08:24:03.103Z,38.77
2019-02-24T08:26:31.637Z,40.17
2019-02-24T08:29:00.177Z,38.57
2019-02-24T08:31:28.696Z,36.40
2019-02-24T08:33:57.212Z,37.90
2019-02-24T08:36:25.691Z,38.37
2019-02-24T08:38:54.156Z,36.30
2019-02-24T08:41:22.679Z,40.47
2019-02-24T08:43:51.152Z,40.03
2019-02-24T08:46:19.686Z,40.87
2019-02-24T08:48:48.228Z,40.10
2019-02-24T08:51:16.735Z,39.33
2019-02-24T08:53:46.049Z,37.53
2019-02-24T08:56:14.698Z,38.93
2019-02-24T08:58:43.170Z,40.47
2019-02-24T09:01:11.654Z,42.07
2019-02-24T09:03:40.308Z,40.67
2019-02-24T09:06:08.874Z,42.20
2019-02-24T09:08:37.362Z,43.40
2019-02-24T09:11:05.961Z,39.93
2019-02-24T09:13:34.428Z,38.30
2019-02-24T09:16:02.975Z,37.90
2019-02-24T09:18:31.543Z,33.47
2019-02-24T09:21:02.013Z,37.77
2019-02-24T09:23:30.523Z,38.03
2019-02-24T09:25:59.045Z,39.40
2019-02-24T09:28:27.500Z,41.17
2019-02-24T09:31:00.812Z,40.17
2019-02-24T09:33:26.336Z,41.87
2019-02-24T09:35:54.808Z,32.53
2019-02-24T09:38:23.299Z,35.17
2019-02-24T09:40:51.839Z,37.90
2019-02-24T09:43:20.325Z,34.40
2019-02-24T09:45:48.866Z,34.97
2019-02-24T09:48:17.390Z,37.97
2019-02-24T09:50:45.913Z,40.10
2019-02-24T09:53:14.383Z,33.43
2019-02-24T09:55:42.919Z,33.23
2019-02-24T09:58:11.472Z,36.53
2019-02-24T10:00:40.010Z,36.57
2019-02-24T10:03:09.594Z,34.23
2019-02-24T10:05:39.003Z,33.10
2019-02-24T10:08:08.225Z,37.27
2019-02-24T10:10:36.903Z,36.67
2019-02-24T10:13:05.355Z,32.53
2019-02-24T10:15:33.825Z,35.47
2019-02-24T10:18:02.452Z,36.00
2019-02-24T10:20:31.007Z,29.97
2019-02-24T10:22:59.519Z,28.90
2019-02-24T10:25:28.033Z,29.33
2019-02-24T10:27:57.455Z,30.10
2019-02-24T10:30:26.152Z,31.40
2019-02-24T10:32:54.670Z,32.43
2019-02-24T10:35:23.141Z,32.90
2019-02-24T10:37:51.605Z,30.70
2019-02-24T10:40:20.148Z,30.73
2019-02-24T10:42:48.720Z,31.37
2019-02-24T10:45:18.220Z,28.40
2019-02-24T10:47:46.892Z,24.43
2019-02-24T10:50:16.479Z,29.13
2019-02-24T10:52:45.014Z,28.47
2019-02-24T10:55:13.783Z,26.27
2019-02-24T10:57:42.322Z,29.83
2019-02-24T11:00:13.670Z,29.30
2019-02-24T11:02:42.192Z,31.40
2019-02-24T11:05:10.656Z,29.10
2019-02-24T11:07:39.182Z,31.90
2019-02-24T11:10:09.445Z,26.80
2019-02-24T11:12:39.004Z,31.80
2019-02-24T11:15:10.100Z,29.37
2019-02-24T11:17:38.779Z,25.97
2019-02-24T11:20:10.428Z,29.70
2019-02-24T11:22:38.972Z,26.80
2019-02-24T11:25:09.537Z,26.17
2019-02-24T11:27:38.090Z,30.80
2019-02-24T11:30:12.132Z,27.83
2019-02-24T11:32:40.903Z,30.10
2019-02-24T11:35:13.092Z,28.77
2019-02-24T11:37:41.837Z,29.23
2019-02-24T11:40:12.259Z,26.40
2019-02-24T11:42:40.737Z,26.80
2019-02-24T11:45:10.473Z,28.70
2019-02-24T11:47:39.077Z,29.80
2019-02-24T11:50:10.325Z,25.10
2019-02-24T11:52:38.963Z,27.50
2019-02-24T11:55:09.118Z,24.77
2019-02-24T11:57:37.657Z,22.07
2019-02-24T12:00:09.115Z,29.97
2019-02-24T12:02:37.660Z,28.63
2019-02-24T12:05:08.293Z,27.47
2019-02-24T12:07:36.730Z,25.33
2019-02-24T12:10:08.298Z,27.93
2019-02-24T12:12:36.773Z,25.67
2019-02-24T12:15:08.305Z,28.53
2019-02-24T12:17:36.837Z,27.60
2019-02-24T12:20:08.362Z,26.80
2019-02-24T12:22:36.872Z,30.03
2019-02-24T12:25:07.934Z,36.33
2019-02-24T12:27:36.424Z,33.27
2019-02-24T12:30:08.485Z,29.25
2019-02-24T12:32:37.024Z,28.83
2019-02-24T12:35:06.683Z,26.13
2019-02-24T12:37:35.230Z,33.03
2019-02-24T12:40:04.819Z,27.50
2019-02-24T12:42:34.953Z,26.37
2019-02-24T12:45:03.754Z,30.87
2019-02-24T12:47:32.283Z,27.70
2019-02-24T12:50:03.595Z,27.03
2019-02-24T12:52:30.946Z,27.87
2019-02-24T12:54:59.478Z,25.10
2019-02-24T12:57:27.943Z,27.77
2019-02-24T12:59:56.415Z,26.37
2019-02-24T13:02:25.051Z,25.40
2019-02-24T13:04:54.432Z,25.20
2019-02-24T13:07:22.954Z,27.97
2019-02-24T13:09:51.477Z,28.27
2019-02-24T13:12:19.963Z,27.53
2019-02-24T13:14:48.537Z,24.13
2019-02-24T13:17:17.176Z,26.53
2019-02-24T13:19:45.643Z,34.20
2019-02-24T13:22:14.474Z,24.37
2019-02-24T13:24:43.177Z,25.13
2019-02-24T13:27:11.641Z,26.03
2019-02-24T13:29:40.190Z,26.57
2019-02-24T13:32:14.893Z,30.20
2019-02-24T13:34:40.206Z,24.57
2019-02-24T13:37:09.620Z,16.10
2019-02-24T13:39:38.122Z,15.17
2019-02-24T13:42:06.729Z,17.40
2019-02-24T13:44:35.199Z,15.47
2019-02-24T13:47:03.708Z,16.77
2019-02-24T13:49:32.212Z,15.50
2019-02-24T13:52:00.676Z,17.77
2019-02-24T13:54:29.238Z,17.90
2019-02-24T13:56:57.723Z,16.43
2019-02-24T13:59:26.186Z,17.63
2019-02-24T14:01:54.736Z,16.83
2019-02-24T14:04:24.106Z,15.10
2019-02-24T14:06:52.732Z,14.17
2019-02-24T14:09:21.248Z,17.57
2019-02-24T14:11:49.830Z,16.90
2019-02-24T14:14:19.247Z,16.53
2019-02-24T14:16:49.726Z,17.00
2019-02-24T14:19:18.238Z,15.40
2019-02-24T14:21:46.728Z,15.83
2019-02-24T14:24:15.316Z,15.63
2019-02-24T14:26:43.773Z,13.37
2019-02-24T14:29:12.231Z,15.43
2019-02-24T14:31:40.768Z,16.30
2019-02-24T14:34:09.225Z,13.53
2019-02-24T14:36:37.695Z,23.10
2019-02-24T14:39:06.524Z,22.03
2019-02-24T14:41:35.073Z,16.67
2019-02-24T14:44:04.493Z,18.83
2019-02-24T14:46:32.994Z,19.07
2019-02-24T14:49:02.457Z,18.50
2019-02-24T14:51:30.978Z,18.17
2019-02-24T14:53:59.589Z,24.80
2019-02-24T14:56:28.066Z,20.27
2019-02-24T14:58:56.607Z,21.93
2019-02-24T15:01:25.061Z,18.03
2019-02-24T15:03:53.663Z,18.27
2019-02-24T15:06:22.148Z,15.03
2019-02-24T15:08:50.607Z,21.23
2019-02-24T15:11:19.096Z,22.47
2019-02-24T15:13:47.610Z,24.50
2019-02-24T15:16:16.073Z,19.73
2019-02-24T15:18:44.557Z,21.77
2019-02-24T15:21:13.152Z,21.70
2019-02-24T15:23:41.701Z,31.63
2019-02-24T15:26:10.157Z,37.37
2019-02-24T15:28:38.731Z,21.53
2019-02-24T15:31:08.218Z,19.27
2019-02-24T15:33:37.040Z,22.80
2019-02-24T15:36:06.513Z,22.20
2019-02-24T15:38:34.992Z,21.50
2019-02-24T15:41:03.818Z,21.97
2019-02-24T15:43:32.365Z,23.50
2019-02-24T15:46:00.812Z,24.73
2019-02-24T15:48:29.356Z,21.83
2019-02-24T15:50:57.893Z,22.13
2019-02-24T15:53:26.423Z,28.00
2019-02-24T15:55:54.969Z,24.60
2019-02-24T15:58:23.486Z,22.03
2019-02-24T16:00:52.067Z,22.73
2019-02-24T16:03:20.629Z,20.50
2019-02-24T16:05:49.256Z,22.53
2019-02-24T16:08:17.733Z,23.20
2019-02-24T16:10:46.195Z,19.67
2019-02-24T16:13:17.187Z,19.97
2019-02-24T16:15:45.107Z,21.13
2019-02-24T16:18:13.606Z,19.50
2019-02-24T16:20:43.152Z,25.00
2019-02-24T16:23:11.745Z,24.63
2019-02-24T16:25:40.347Z,28.00
2019-02-24T16:28:09.026Z,31.00
2019-02-24T16:30:37.676Z,31.30
2019-02-24T16:33:10.488Z,30.17
2019-02-24T16:35:36.570Z,39.00
2019-02-24T16:38:05.134Z,33.53
2019-02-24T16:40:33.601Z,24.77
2019-02-24T16:43:02.208Z,32.80
2019-02-24T16:45:30.734Z,31.47
2019-02-24T16:47:59.196Z,28.57
2019-02-24T16:50:27.782Z,33.73
2019-02-24T16:52:56.297Z,27.17
2019-02-24T16:55:24.767Z,24.57
2019-02-24T16:57:53.291Z,26.13
2019-02-24T17:00:24.157Z,26.10
2019-02-24T17:02:52.642Z,27.70
2019-02-24T17:05:21.305Z,31.23
2019-02-24T17:07:49.796Z,34.60
2019-02-24T17:10:20.228Z,32.13
2019-02-24T17:12:48.821Z,39.03
2019-02-24T17:15:17.286Z,42.07
2019-02-24T17:17:45.899Z,31.77
2019-02-24T17:20:22.209Z,36.73
2019-02-24T17:22:50.673Z,32.67
2019-02-24T17:25:19.210Z,30.10
2019-02-24T17:27:47.770Z,35.73
2019-02-24T17:30:16.853Z,36.83
2019-02-24T17:32:45.611Z,37.27
2019-02-24T17:35:14.918Z,32.07
2019-02-24T17:37:44.496Z,32.23
2019-02-24T17:40:19.526Z,31.17
2019-02-24T17:42:49.374Z,28.50
2019-02-24T17:45:18.843Z,22.03
2019-02-24T17:47:47.319Z,22.23
2019-02-24T17:50:16.875Z,19.37
2019-02-24T17:52:45.460Z,21.43
2019-02-24T17:55:15.075Z,18.03
2019-02-24T17:57:43.689Z,19.33
2019-02-24T18:00:18.938Z,23.77
2019-02-24T18:02:47.404Z,20.87
2019-02-24T18:05:16.030Z,20.57
2019-02-24T18:07:44.515Z,22.10
2019-02-24T18:10:13.042Z,23.07
2019-02-24T18:12:41.572Z,20.50
2019-02-24T18:15:14.202Z,21.70
2019-02-24T18:17:42.732Z,22.37
2019-02-24T18:20:14.040Z,23.47
2019-02-24T18:22:44.154Z,21.37
2019-02-24T18:25:13.162Z,24.07
2019-02-24T18:27:41.999Z,26.63
2019-02-24T18:30:28.673Z,24.53
2019-02-24T18:32:57.192Z,22.27
2019-02-24T18:35:25.793Z,18.43
2019-02-24T18:37:54.353Z,18.43
2019-02-24T18:40:23.066Z,18.65
2019-02-24T18:42:59.593Z,29.53
2019-02-24T18:45:21.853Z,33.90
2019-02-24T18:47:50.535Z,35.00
2019-02-24T18:50:22.044Z,47.83
2019-02-24T18:52:50.696Z,40.07
2019-02-24T18:55:19.584Z,38.73
2019-02-24T18:57:48.148Z,33.23
2019-02-24T19:00:18.644Z,30.40
2019-02-24T19:02:47.313Z,31.37
2019-02-24T19:05:15.949Z,33.97
2019-02-24T19:07:44.561Z,29.90
2019-02-24T19:10:15.973Z,28.40
2019-02-24T19:12:44.446Z,24.80
2019-02-24T19:15:20.880Z,36.17
2019-02-24T19:17:49.417Z,29.50
2019-02-24T19:20:20.120Z,18.70
2019-02-24T19:22:49.715Z,20.97
2019-02-24T19:25:18.533Z,16.53
2019-02-24T19:27:47.076Z,20.37
2019-02-24T19:30:17.099Z,18.35
2019-02-24T19:32:45.720Z,15.70
2019-02-24T19:35:16.453Z,19.10
2019-02-24T19:37:45.343Z,15.43
2019-02-24T19:40:21.129Z,21.00
2019-02-24T19:42:49.754Z,16.33
2019-02-24T19:45:25.764Z,15.67
2019-02-24T19:47:54.520Z,16.93
2019-02-24T19:50:23.233Z,16.23
2019-02-24T19:52:51.883Z,16.53
2019-02-24T19:55:20.567Z,16.53
2019-02-24T19:57:49.214Z,21.03
2019-02-24T20:00:25.938Z,17.03
2019-02-24T20:02:54.614Z,20.90
2019-02-24T20:05:23.294Z,16.77
2019-02-24T20:07:52.323Z,18.97
2019-02-24T20:10:25.429Z,22.07
2019-02-24T20:12:54.069Z,19.80
2019-02-24T20:15:22.612Z,20.50
2019-02-24T20:17:51.079Z,19.37
2019-02-24T20:20:20.112Z,22.83
2019-02-24T20:22:48.662Z,23.13
2019-02-24T20:25:21.425Z,37.37
2019-02-24T20:27:50.130Z,18.00
2019-02-24T20:30:21.652Z,23.57
2019-02-24T20:32:50.273Z,18.43
2019-02-24T20:35:18.898Z,14.27
2019-02-24T20:37:47.597Z,17.40
2019-02-24T20:40:16.228Z,17.10
2019-02-24T20:42:44.915Z,13.87
2019-02-24T20:45:16.021Z,19.10
2019-02-24T20:47:44.584Z,14.83
2019-02-24T20:50:16.018Z,14.70
2019-02-24T20:52:45.250Z,19.10
2019-02-24T20:55:14.008Z,21.27
2019-02-24T20:57:42.524Z,28.60
2019-02-24T21:00:17.407Z,21.40
2019-02-24T21:02:45.873Z,23.37
2019-02-24T21:05:15.044Z,19.87
2019-02-24T21:07:44.168Z,21.83
2019-02-24T21:10:13.085Z,21.90
2019-02-24T21:12:43.078Z,22.60
2019-02-24T21:15:16.776Z,24.23
2019-02-24T21:17:45.844Z,27.03
2019-02-24T21:20:29.565Z,29.73
2019-02-24T21:22:58.031Z,30.27
2019-02-24T21:25:27.229Z,34.20
2019-02-24T21:27:55.897Z,46.10
2019-02-24T21:30:25.322Z,38.70
2019-02-24T21:32:53.836Z,38.70
2019-02-24T21:35:23.077Z,32.23
2019-02-24T21:37:52.318Z,29.53
2019-02-24T21:40:23.513Z,35.13
2019-02-24T21:42:53.622Z,35.13
2019-02-24T21:45:27.440Z,31.43
2019-02-24T21:47:56.638Z,28.40
2019-02-24T21:50:25.208Z,27.47
2019-02-24T21:52:54.720Z,26.43
2019-02-24T21:55:23.427Z,27.97
2019-02-24T21:57:52.675Z,25.67
2019-02-24T22:00:23.020Z,28.35
2019-02-24T22:02:52.174Z,23.40
2019-02-24T22:05:22.810Z,30.27
2019-02-24T22:07:52.376Z,23.87
2019-02-24T22:10:21.534Z,20.40
2019-02-24T22:12:50.014Z,21.00
2019-02-24T22:15:23.857Z,20.73
2019-02-24T22:17:52.350Z,18.73
2019-02-24T22:20:21.491Z,21.63
2019-02-24T22:22:50.674Z,38.00
2019-02-24T22:25:19.975Z,32.87
2019-02-24T22:27:49.315Z,33.93
2019-02-24T22:30:23.350Z,30.93
2019-02-24T22:32:52.059Z,44.23
2019-02-24T22:35:21.162Z,35.67
2019-02-24T22:37:49.809Z,32.47
2019-02-24T22:40:19.040Z,32.47
2019-02-24T22:42:48.253Z,34.90
2019-02-24T22:45:21.351Z,46.70
2019-02-24T22:47:50.600Z,112.27
2019-02-24T22:50:19.755Z,67.87
2019-02-24T22:52:48.986Z,45.43
2019-02-24T22:55:19.287Z,40.93
2019-02-24T22:57:48.520Z,38.23
2019-02-24T23:00:52.939Z,49.90
2019-02-24T23:03:24.229Z,49.87
2019-02-24T23:05:53.475Z,45.57
2019-02-24T23:08:22.647Z,39.57
2019-02-24T23:10:51.813Z,31.82
2019-02-24T23:13:20.986Z,26.70
2019-02-24T23:15:50.282Z,26.73
2019-02-24T23:18:20.179Z,21.80
2019-02-24T23:20:49.316Z,25.27
2019-02-24T23:23:19.571Z,20.73
2019-02-24T23:25:48.695Z,21.97
2019-02-24T23:28:17.893Z,20.97
2019-02-24T23:30:47.007Z,18.13
2019-02-24T23:33:16.184Z,17.87
2019-02-24T23:35:45.326Z,19.00
2019-02-24T23:38:13.777Z,16.57
2019-02-24T23:40:42.867Z,15.10
2019-02-24T23:43:11.469Z,14.10
2019-02-24T23:45:40.542Z,17.27
2019-02-24T23:48:09.178Z,17.13
2019-02-24T23:50:38.401Z,14.60
2019-02-24T23:53:06.866Z,15.00
2019-02-24T23:55:35.935Z,17.00
2019-02-24T23:58:06.038Z,15.87
